Port Blandford, Canada
Current Conditions -  °F | °C
As of 4:50 PM on Friday 24 Oct 2014 (Local Time) from CYQX Reporting Station
Light Rain Light Rain  
Wind Chill: 40°   Ceiling: 300
Heat Index: 46°   Visibility: 3mi
Dew Point: 46°   Wind: 14mph
Humidity: 100%   Direction: 60°ENE
Pressure: 29.83"   Gusts: 20mph
Location:  48.35°N, 54.17°W
Report Text: CYQX 241850Z 06012G17KT 3SM -RA BR OVC003 08/08 A2983 RMK SF8 SLP108
Loading
Personal Weather Stations






























Interactive Weather Map
Tropical Storm Tracking
New forecast layout! Learn more

10-Day Weather Forecast

Advertisements
Track Severe Weather on mobile